Flight Track Log - Related Links

Times and Time Zones

All times are in EDT time to prevent confusion due to time zone crossing. See the SWA2490 flight status page for this flight to view local times or setup timezone preferences in your user account.

Time Position Orientation Groundspeed Altitude Reporting Facility
EDT Latitude Longitude Course Direction KTS MPH feet Rate Location/Type
Fri 06:38:55 PM 42.9589 -83.6669 144° Southeast 218 251 3,300  Level Cleveland Center
Fri 06:39:55 PM 42.9944 -83.5750 62° Northeast 258 297 7,400 3,750 Climbing Cleveland Center
Fri 06:40:55 PM 43.0308 -83.4633 66° East 277 319 10,800 3,550 Climbing Cleveland Center
Fri 06:41:55 PM 43.0750 -83.3544 61° Northeast 296 341 14,500 2,900 Climbing Cleveland Center
Fri 06:42:55 PM 43.1008 -83.2275 74° East 313 360 16,600 2,167 Climbing Cleveland Center
Fri 06:44:00 PM 42.4506 -83.2173 144° Southeast  Level FlightAware Approximate
Fri 06:44:00 PM 43.0356 -83.1061 150° Southeast  Level Estimated
Fri 06:44:55 PM 42.9172 -83.0553 150° Southeast 328 377 21,000  Level Cleveland Center
Fri 06:45:55 PM 42.8167 -82.9750 150° Southeast 379 436 23,800 2,450 Climbing Cleveland Center
Fri 06:46:55 PM 42.7142 -82.8919 149° Southeast 412 474 25,900 2,150 Climbing Cleveland Center
Fri 06:47:55 PM 42.6117 -82.8064 148° Southeast 430 495 28,100 2,050 Climbing Cleveland Center
Fri 06:48:55 PM 42.5050 -82.7236 150° Southeast 440 506 30,000 1,900 Climbing Cleveland Center
Fri 06:49:55 PM 42.4000 -82.6414 150° Southeast 440 506 31,900 1,800 Climbing Cleveland Center
Fri 06:50:55 PM 42.2953 -82.5567 149° Southeast 440 506 33,600 1,800 Climbing Cleveland Center
Fri 06:51:55 PM 42.1925 -82.4750 150° Southeast 440 506 35,500 1,700 Climbing Cleveland Center
Fri 06:52:55 PM 42.1000 -82.3939 147° Southeast 431 496 37,000 750 Climbing Cleveland Center
Fri 06:53:55 PM 41.9886 -82.3122 151° Southeast 431 496 37,000  Level Cleveland Center
Fri 06:54:55 PM 41.8833 -82.2342 151° Southeast 431 496 37,000  Level Cleveland Center
Fri 06:55:55 PM 41.7803 -82.1536 150° Southeast 431 496 37,000  Level Cleveland Center
Fri 06:56:55 PM 41.6894 -82.0819 149° Southeast 436 502 37,000  Level Cleveland Center
Fri 06:57:55 PM 41.5844 -81.9989 149° Southeast 436 502 37,000  Level Cleveland Center
Fri 06:58:55 PM 41.4897 -81.8886 139° Southeast 450 518 37,000  Level Cleveland Center
Fri 06:59:55 PM 41.4033 -81.7900 139° Southeast 450 518 37,000  Level Cleveland Center
Fri 07:00:55 PM 41.2961 -81.6581 137° Southeast 458 527 37,000  Level Cleveland Center
Fri 07:01:55 PM 41.1992 -81.5433 138° Southeast 463 533 37,000  Level Cleveland Center
Fri 07:02:55 PM 41.0856 -81.4206 141° Southeast 469 540 37,000  Level Cleveland Center
Fri 07:03:55 PM 40.9986 -81.3203 139° Southeast 479 551 37,000  Level Cleveland Center
Fri 07:04:55 PM 40.8992 -81.2067 139° Southeast 474 545 37,000  Level Cleveland Center
Fri 07:05:55 PM 40.8019 -81.0961 139° Southeast 469 540 37,000  Level Cleveland Center
Fri 07:06:55 PM 40.7086 -80.9858 138° Southeast 463 533 37,000  Level Cleveland Center
Fri 07:07:55 PM 40.6131 -80.8758 139° Southeast 463 533 37,000  Level Cleveland Center
Fri 07:08:55 PM 40.5172 -80.7689 140° Southeast 458 527 37,000  Level Cleveland Center
Fri 07:09:55 PM 40.4172 -80.6567 139° Southeast 458 527 37,000 -300 Level Cleveland Center
Fri 07:10:55 PM 40.3194 -80.5478 140° Southeast 458 527 36,400 -800 Descending Cleveland Center
Fri 07:11:55 PM 40.2214 -80.4389 140° Southeast 458 527 35,400 -700 Descending Cleveland Center
Fri 07:12:55 PM 40.1128 -80.3225 141° Southeast 452 520 35,000 -200 Descending Cleveland Center
Fri 07:13:55 PM 40.0269 -80.2225 138° Southeast 452 520 35,000  Level Cleveland Center
Fri 07:14:55 PM 39.9617 -80.0522 117° Southeast 474 545 35,000  Level Cleveland Center
Fri 07:17:20 PM 39.8614 -79.6678 109° East 493 567 35,000 -594 Level Washington Center
Fri 07:18:17 PM 39.8192 -79.5006 108° East 493 567 33,000 -2,593 Descending Washington Center
Fri 07:19:18 PM 39.7764 -79.3336 108° East 487 560 29,900 -3,295 Descending Washington Center
Fri 07:20:19 PM 39.7356 -79.1750 108° East 476 548 26,300 -2,430 Descending Washington Center
Fri 07:21:19 PM 39.6942 -79.0192 109° East 470 541 25,000 -645 Descending Washington Center
Fri 07:22:20 PM 39.6408 -78.8414 111° Southeast 470 541 25,000  Level Washington Center
Fri 07:23:20 PM 39.5969 -78.6806 109° East 475 547 25,000 -712 Level Washington Center
Fri 07:24:18 PM 39.5572 -78.5256 108° East 461 531 23,600 -2,319 Descending Washington Center
Fri 07:25:19 PM 39.5167 -78.3811 110° East 448 516 20,400 -3,000 Descending Washington Center
Fri 07:26:18 PM 39.4783 -78.2400 109° East 426 490 17,600 -2,700 Descending Washington Center
Fri 07:27:19 PM 39.4417 -78.1014 109° East 410 472 15,000 -1,289 Descending Washington Center
Fri 07:28:19 PM 39.4300 -77.9614 96° East 398 458 15,000  Level Washington Center
Fri 07:29:17 PM 39.4350 -77.8083 88° East 404 465 15,000  Level Washington Center
Fri 07:30:18 PM 39.4375 -77.6553 89° East 411 473 15,000 -590 Level Washington Center
Fri 07:31:19 PM 39.4419 -77.5131 88° East 411 473 13,800 -1,950 Descending Washington Center
Fri 07:32:18 PM 39.4442 -77.3786 89° East 389 448 11,100 -1,400 Descending Washington Center
Fri 07:33:19 PM 39.4606 -77.2500 81° East 370 426 11,000 -54 Descending Washington Center
Fri 07:34:09 PM 39.4833 -77.1333 76° East 383 441 11,000 -436 Level Potomac TRACON
Fri 07:35:09 PM 39.5000 -77.0167 79° East 333 383 10,200 -1,000 Descending Potomac TRACON
Fri 07:36:09 PM 39.5000 -76.9000 90° East 310 357 9,000 -1,200 Descending Potomac TRACON
Fri 07:37:09 PM 39.5167 -76.8000 78° East 308 354 7,800 -1,388 Descending Potomac TRACON
Fri 07:38:10 PM 39.5000 -76.6833 100° East 295 339 6,200 -1,388 Descending Potomac TRACON
Fri 07:39:10 PM 39.4667 -76.5833 113° Southeast 289 333 5,000 -800 Descending Potomac TRACON
Fri 07:40:10 PM 39.4167 -76.5333 142° Southeast 280 322 4,600 -694 Descending Potomac TRACON
Fri 07:41:11 PM 39.3333 -76.5000 163° South 266 306 3,600 -793 Descending Potomac TRACON
Fri 07:42:11 PM 39.2667 -76.4833 169° South 265 305 3,000 -300 Descending Potomac TRACON
Fri 07:43:11 PM 39.2000 -76.4500 159° South 249 287 3,000  Level Potomac TRACON
Fri 07:44:11 PM 39.1333 -76.4333 169° South 226 260 3,000  Level Potomac TRACON
Fri 07:45:05 PM 39.1167 -76.5000 252° West 217 250 3,000 -250 Level Potomac TRACON
Fri 07:46:11 PM 39.1000 -76.5833 256° West 195 224 2,500 -803 Descending Potomac TRACON
Fri 07:47:12 PM 39.1167 -76.6167 303° West 150 173 1,300 -991 Descending Potomac TRACON
Fri 07:48:06 PM 39.1500 -76.6500 322° Northwest 138 159 600 -778 Descending Potomac TRACON

Login

Don't have an account? Register now (free) for customized features, flight alerts, and more!